Time;durP1;ratioP1;P1;durP2;ratioP2;P2;SDS_P1;SDS_P2;PMS_P1;PMS_P2;Temp;Humidity;BMP_temperature;BMP_pressure;BME280_temperature;BME280_humidity;BME280_pressure;Samples;Min_cycle;Max_cycle;Signal;HPM_P1;HPM_P2
2023/05/20 00:01:06;;;;;;;;;;;;;;;8.71;58.10;100212.34;4898591;29;19927;-81
2023/05/20 00:03:33;;;;;;;;;;;;;;;8.83;57.97;100209.88;4899108;29;19927;-81
2023/05/20 00:06:00;;;;;;;;;;;;;;;8.91;57.80;100209.66;4899472;29;19966;-82
2023/05/20 00:08:27;;;;;;;;;;;;;;;9.02;57.63;100209.09;4899493;29;19927;-81
2023/05/20 00:10:54;;;;;;;;;;;;;;;9.09;57.16;100201.84;4899715;29;19928;-81
2023/05/20 00:13:23;;;;;;;;;;;;;;;9.16;56.83;100195.63;4899345;29;19927;-80
2023/05/20 00:15:50;;;;;;;;;;;;;;;9.19;56.41;100201.44;4899119;29;20351;-80
2023/05/20 00:18:17;;;;;;;;;;;;;;;9.26;56.26;100193.34;4899172;29;19932;-80
2023/05/20 00:20:44;;;;;;;;;;;;;;;9.26;55.97;100202.25;4898714;29;20516;-80
2023/05/20 00:23:12;;;;;;;;;;;;;;;9.27;55.65;100197.72;4898539;29;19927;-79
2023/05/20 00:25:39;;;;;;;;;;;;;;;9.30;54.95;100197.31;4901895;29;19954;-81
2023/05/20 00:28:05;;;;;;;;;;;;;;;9.32;54.62;100195.22;4906193;29;19935;-81
2023/05/20 00:30:33;;;;;;;;;;;;;;;9.32;54.55;100200.63;4911556;29;19943;-82
2023/05/20 00:33:00;;;;;;;;;;;;;;;9.31;54.42;100202.47;4917331;29;19927;-80
2023/05/20 00:35:27;;;;;;;;;;;;;;;9.27;54.23;100203.09;4897531;29;20460;-81
2023/05/20 00:37:53;;;;;;;;;;;;;;;9.23;54.36;100197.28;4898009;29;19962;-80
2023/05/20 00:40:22;;;;;;;;;;;;;;;9.22;54.43;100197.50;4897794;29;20335;-81
2023/05/20 00:42:49;;;;;;;;;;;;;;;9.22;54.41;100202.91;4897160;29;19946;-80
2023/05/20 00:45:16;;;;;;;;;;;;;;;9.19;54.48;100204.13;4898644;29;19974;-81
2023/05/20 00:47:43;;;;;;;;;;;;;;;9.20;54.36;100204.97;4897851;29;19927;-80
2023/05/20 00:50:10;;;;;;;;;;;;;;;9.21;54.53;100207.44;4897085;29;19970;-81
2023/05/20 00:52:38;;;;;;;;;;;;;;;9.24;54.35;100201.66;4881502;29;20374;-81
2023/05/20 00:55:05;;;;;;;;;;;;;;;9.27;54.35;100201.25;4897458;29;19931;-80
2023/05/20 00:57:32;;;;;;;;;;;;;;;9.27;54.25;100206.63;4912441;29;19927;-82
2023/05/20 00:59:59;;;;;;;;;;;;;;;9.30;54.15;100208.06;4897223;29;19933;-83
2023/05/20 01:02:26;;;;;;;;;;;;;;;9.29;54.35;100196.47;4896542;29;19939;-80
2023/05/20 01:04:55;;;;;;;;;;;;;;;9.32;54.41;100203.31;4897421;29;20306;-80
2023/05/20 01:07:22;;;;;;;;;;;;;;;9.33;54.22;100204.97;4896285;29;20529;-81
2023/05/20 01:09:51;;;;;;;;;;;;;;;9.33;54.23;100205.78;4897363;29;19935;-80
2023/05/20 01:12:37;;;;;;;;;;;;;;;9.32;54.40;100204.13;4897373;29;19931;-81
2023/05/20 01:15:04;;;;;;;;;;;;;;;9.34;54.40;100206.59;4897639;29;19927;-81
2023/05/20 01:17:36;;;;;;;;;;;;;;;9.37;53.62;100206.22;4897931;29;19966;-81
2023/05/20 01:20:08;;;;;;;;;;;;;;;9.42;53.26;100198.34;4897919;29;20279;-81
2023/05/20 01:22:36;;;;;;;;;;;;;;;9.45;53.05;100192.53;4896626;29;19983;-80
2023/05/20 01:25:04;;;;;;;;;;;;;;;9.47;52.54;100198.53;4897971;29;19927;-82
2023/05/20 01:27:30;;;;;;;;;;;;;;;9.51;52.52;100202.47;4880753;29;20026;-81
2023/05/20 01:29:58;;;;;;;;;;;;;;;9.53;52.74;100199.56;4911419;29;20421;-81
2023/05/20 01:32:26;;;;;;;;;;;;;;;9.56;52.55;100199.16;4894877;29;19963;-80
2023/05/20 01:34:53;;;;;;;;;;;;;;;9.57;52.60;100208.91;4897025;29;19958;-81
2023/05/20 01:37:20;;;;;;;;;;;;;;;9.59;52.33;100206.00;4912545;29;19927;-81
2023/05/20 01:39:48;;;;;;;;;;;;;;;9.62;52.23;100209.13;4895996;29;19938;-80
2023/05/20 01:42:15;;;;;;;;;;;;;;;9.63;52.26;100199.16;4896266;29;19932;-81
2023/05/20 01:44:42;;;;;;;;;;;;;;;9.64;52.44;100211.56;4897223;29;19928;-81
2023/05/20 01:47:12;;;;;;;;;;;;;;;9.65;52.11;100208.69;4897125;29;19949;-81
2023/05/20 01:49:40;;;;;;;;;;;;;;;9.65;52.18;100215.94;4897163;29;20400;-81
2023/05/20 01:52:07;;;;;;;;;;;;;;;9.68;52.30;100215.53;4912060;29;19936;-80
2023/05/20 01:54:34;;;;;;;;;;;;;;;9.70;52.53;100211.59;4896117;29;19934;-81
2023/05/20 01:57:01;;;;;;;;;;;;;;;9.69;52.93;100215.31;4913879;29;19934;-81
2023/05/20 01:59:29;;;;;;;;;;;;;;;9.67;53.30;100212.00;4898154;29;19986;-80
2023/05/20 02:01:56;;;;;;;;;;;;;;;9.62;53.81;100211.81;4898546;29;19938;-80
2023/05/20 02:04:23;;;;;;;;;;;;;;;9.61;54.44;100207.44;4878899;29;19927;-80
2023/05/20 02:06:50;;;;;;;;;;;;;;;9.58;54.94;100209.72;4903506;29;20030;-81
2023/05/20 02:09:17;;;;;;;;;;;;;;;9.59;55.04;100208.69;4913731;29;20318;-80
2023/05/20 02:11:44;;;;;;;;;;;;;;;9.59;55.28;100214.91;4897358;29;20565;-80
2023/05/20 02:14:11;;;;;;;;;;;;;;;9.58;55.66;100213.25;4913929;29;19934;-80
2023/05/20 02:16:38;;;;;;;;;;;;;;;9.61;55.93;100212.81;4913197;29;19933;-80
2023/05/20 02:19:05;;;;;;;;;;;;;;;9.63;56.29;100208.06;4879209;29;19927;-80
2023/05/20 02:21:34;;;;;;;;;;;;;;;9.58;56.67;100209.72;4878911;29;19935;-81
2023/05/20 02:24:00;;;;;;;;;;;;;;;9.60;56.72;100210.34;4885745;29;19930;-81
2023/05/20 02:26:27;;;;;;;;;;;;;;;9.61;57.21;100212.00;4897715;29;19933;-81
2023/05/20 02:28:54;;;;;;;;;;;;;;;9.55;57.57;100208.28;4895386;29;19928;-82
2023/05/20 02:31:21;;;;;;;;;;;;;;;9.53;58.18;100207.66;4911470;29;19927;-81
2023/05/20 02:33:48;;;;;;;;;;;;;;;9.52;58.30;100209.53;4895125;29;20370;-81
2023/05/20 02:36:16;;;;;;;;;;;;;;;9.49;58.73;100209.91;4895501;29;20021;-80
2023/05/20 02:38:43;;;;;;;;;;;;;;;9.50;58.85;100213.47;4879654;29;20367;-80
2023/05/20 02:41:10;;;;;;;;;;;;;;;9.49;58.83;100209.91;4895226;29;19927;-80
2023/05/20 02:43:39;;;;;;;;;;;;;;;9.57;58.93;100208.06;4896676;29;19927;-81
2023/05/20 02:46:06;;;;;;;;;;;;;;;9.52;59.26;100209.53;4896405;29;19982;-80
2023/05/20 02:48:33;;;;;;;;;;;;;;;9.48;59.51;100212.84;4896053;29;19927;-80
2023/05/20 02:51:00;;;;;;;;;;;;;;;9.48;59.71;100219.06;4895818;29;19941;-81
2023/05/20 02:53:26;;;;;;;;;;;;;;;9.44;59.92;100216.97;4896141;29;20022;-80
2023/05/20 02:55:53;;;;;;;;;;;;;;;9.46;59.90;100213.03;4896166;29;19927;-80
2023/05/20 02:58:25;;;;;;;;;;;;;;;9.50;60.04;100216.97;4896540;29;19927;-81
2023/05/20 03:00:52;;;;;;;;;;;;;;;9.53;59.85;100216.56;4894886;29;19928;-80
2023/05/20 03:03:19;;;;;;;;;;;;;;;9.57;59.82;100217.00;4894855;29;19971;-81
2023/05/20 03:05:46;;;;;;;;;;;;;;;9.50;60.24;100205.38;4894648;29;19935;-82
2023/05/20 03:08:13;;;;;;;;;;;;;;;9.47;60.36;100216.56;4896413;29;19927;-82
2023/05/20 03:10:40;;;;;;;;;;;;;;;9.55;60.35;100219.88;4894633;29;20046;-80
2023/05/20 03:13:08;;;;;;;;;;;;;;;9.59;60.51;100214.91;4879420;29;19934;-80
2023/05/20 03:15:36;;;;;;;;;;;;;;;9.55;60.74;100225.28;4896243;29;19939;-81
2023/05/20 03:18:04;;;;;;;;;;;;;;;9.64;60.88;100222.38;4894952;29;19934;-81
2023/05/20 03:20:37;;;;;;;;;;;;;;;9.71;60.73;100223.19;4896046;29;19927;-82
2023/05/20 03:23:06;;;;;;;;;;;;;;;9.85;60.54;100224.84;4881717;29;20021;-81
2023/05/20 03:25:35;;;;;;;;;;;;;;;9.94;60.40;100218.16;4899291;29;19969;-81
2023/05/20 03:28:02;;;;;;;;;;;;;;;9.83;60.57;100220.69;4901121;29;20015;-81
2023/05/20 03:30:30;;;;;;;;;;;;;;;9.83;60.41;100216.13;4901063;29;19927;-78
2023/05/20 03:32:57;;;;;;;;;;;;;;;9.89;60.72;100228.75;4910936;29;19928;-81
2023/05/20 03:35:24;;;;;;;;;;;;;;;9.93;60.72;100221.91;4909629;29;19927;-81
2023/05/20 03:37:52;;;;;;;;;;;;;;;10.02;60.49;100222.50;4898606;29;20339;-81
2023/05/20 03:40:22;;;;;;;;;;;;;;;10.15;60.26;100216.25;4898688;29;19934;-80
2023/05/20 03:42:50;;;;;;;;;;;;;;;10.20;60.16;100219.97;4914072;29;19974;-80
2023/05/20 03:45:19;;;;;;;;;;;;;;;10.25;60.24;100215.81;4898349;29;19927;-81
2023/05/20 03:48:04;;;;;;;;;;;;;;;10.33;60.24;100216.44;4898337;29;19979;-81
2023/05/20 03:50:33;;;;;;;;;;;;;;;10.40;60.03;100214.53;4898168;29;19927;-81
2023/05/20 03:53:00;;;;;;;;;;;;;;;10.30;60.21;100210.63;4883021;29;19934;-81
2023/05/20 03:55:33;;;;;;;;;;;;;;;10.21;60.42;100220.81;4898321;29;19927;-81
2023/05/20 03:58:01;;;;;;;;;;;;;;;10.07;60.97;100211.09;4897710;29;20433;-81
2023/05/20 04:00:30;;;;;;;;;;;;;;;9.98;61.21;100216.72;4897067;29;19939;-81
2023/05/20 04:02:57;;;;;;;;;;;;;;;9.89;61.58;100219.84;4896986;29;20450;-81
2023/05/20 04:05:25;;;;;;;;;;;;;;;9.86;61.76;100213.00;4898541;29;20434;-82
2023/05/20 04:07:53;;;;;;;;;;;;;;;9.82;62.15;100209.06;4904002;29;19999;-82
2023/05/20 04:10:22;;;;;;;;;;;;;;;9.82;62.48;100213.63;4884955;29;20338;-82
2023/05/20 04:12:51;;;;;;;;;;;;;;;9.74;62.51;100215.50;4898474;29;19927;-82
2023/05/20 04:15:19;;;;;;;;;;;;;;;9.74;62.83;100214.69;4894585;29;19928;-81
2023/05/20 04:17:53;;;;;;;;;;;;;;;9.81;62.79;100215.50;4897009;29;20339;-81
2023/05/20 04:20:20;;;;;;;;;;;;;;;9.97;62.69;100209.66;4913896;29;19935;-81
2023/05/20 04:22:49;;;;;;;;;;;;;;;10.12;62.45;100213.97;4882417;29;19982;-80
2023/05/20 04:25:16;;;;;;;;;;;;;;;10.37;62.10;100219.53;4882503;29;20334;-81
2023/05/20 04:27:43;;;;;;;;;;;;;;;10.39;61.58;100214.75;4899069;29;19928;-80
2023/05/20 04:30:10;;;;;;;;;;;;;;;10.43;61.47;100209.75;4898120;29;19962;-80
2023/05/20 04:32:40;;;;;;;;;;;;;;;10.38;61.50;100216.63;4897276;29;19935;-81
2023/05/20 04:35:10;;;;;;;;;;;;;;;10.59;61.58;100217.38;4897476;29;19927;-80
2023/05/20 04:37:41;;;;;;;;;;;;;;;10.82;61.02;100214.13;4883045;29;19927;-81
2023/05/20 04:40:11;;;;;;;;;;;;;;;10.89;60.57;100209.53;4897699;29;19931;-80
2023/05/20 04:42:38;;;;;;;;;;;;;;;10.93;60.80;100215.31;4897502;29;19928;-81
2023/05/20 04:45:07;;;;;;;;;;;;;;;10.90;60.82;100221.97;4897091;29;20299;-80
2023/05/20 04:47:37;;;;;;;;;;;;;;;10.89;60.95;100219.47;4892261;29;20414;-81
2023/05/20 04:50:12;;;;;;;;;;;;;;;10.93;61.05;100216.13;4891460;29;19927;-80
2023/05/20 04:52:44;;;;;;;;;;;;;;;10.99;61.06;100219.84;4879649;29;19928;-81
2023/05/20 04:55:12;;;;;;;;;;;;;;;10.97;61.08;100222.75;4894125;29;20400;-80
2023/05/20 04:57:40;;;;;;;;;;;;;;;10.98;60.92;100218.19;4890763;29;19931;-81
2023/05/20 05:00:09;;;;;;;;;;;;;;;11.05;60.86;100214.41;4888300;29;20287;-81
2023/05/20 05:02:36;;;;;;;;;;;;;;;11.18;60.61;100224.28;4891613;29;19932;-81
2023/05/20 05:05:03;;;;;;;;;;;;;;;11.22;60.34;100220.09;4886785;29;20030;-82
2023/05/20 05:07:31;;;;;;;;;;;;;;;11.18;60.44;100221.56;4885139;29;20294;-81
2023/05/20 05:09:58;;;;;;;;;;;;;;;11.34;60.22;100220.19;4879885;29;19927;-80
2023/05/20 05:12:29;;;;;;;;;;;;;;;11.30;59.76;100220.88;4883803;29;20398;-81
2023/05/20 05:14:58;;;;;;;;;;;;;;;11.54;59.73;100225.44;4886362;29;19935;-81
2023/05/20 05:17:27;;;;;;;;;;;;;;;11.68;58.86;100207.25;4881297;29;20378;-82
2023/05/20 05:19:56;;;;;;;;;;;;;;;11.86;58.74;100210.00;4858761;29;19932;-81
2023/05/20 05:22:24;;;;;;;;;;;;;;;12.20;58.25;100209.66;4911746;29;19927;-82
2023/05/20 05:24:52;;;;;;;;;;;;;;;12.32;57.29;100205.97;4870727;29;20505;-84
2023/05/20 05:27:19;;;;;;;;;;;;;;;12.23;57.03;100212.75;4891301;29;19927;-82
2023/05/20 05:29:46;;;;;;;;;;;;;;;12.20;57.52;100206.94;4896157;29;19979;-81
2023/05/20 05:32:13;;;;;;;;;;;;;;;12.52;57.28;100205.72;4890773;29;19927;-82
2023/05/20 05:34:41;;;;;;;;;;;;;;;12.85;56.65;100199.03;4895311;29;19934;-84
2023/05/20 05:37:08;;;;;;;;;;;;;;;12.87;55.69;100209.66;4552111;29;9999681;-81
2023/05/20 05:39:36;;;;;;;;;;;;;;;12.50;56.13;100207.00;4908003;29;20341;-81
2023/05/20 05:42:04;;;;;;;;;;;;;;;12.51;56.39;100195.13;4907677;29;19946;-81
2023/05/20 05:44:32;;;;;;;;;;;;;;;12.68;56.10;100201.53;4874439;29;19927;-80
2023/05/20 05:47:00;;;;;;;;;;;;;;;12.89;55.65;100197.53;4876693;29;19949;-81
2023/05/20 05:49:27;;;;;;;;;;;;;;;12.75;55.60;100198.75;4893057;29;20519;-80
2023/05/20 05:51:55;;;;;;;;;;;;;;;12.56;55.91;100201.50;4876836;29;19927;-79
2023/05/20 05:54:22;;;;;;;;;;;;;;;12.52;56.08;100194.88;4894691;29;20022;-80
2023/05/20 05:56:50;;;;;;;;;;;;;;;12.76;56.14;100206.66;4879319;29;20438;-81
2023/05/20 05:59:17;;;;;;;;;;;;;;;13.15;55.50;100193.56;4895003;29;19927;-82
2023/05/20 06:01:45;;;;;;;;;;;;;;;13.14;54.82;100204.63;4894370;29;19927;-84
2023/05/20 06:04:13;;;;;;;;;;;;;;;12.94;54.99;100199.53;4891684;29;20030;-82
2023/05/20 06:06:40;;;;;;;;;;;;;;;12.92;54.94;100202.47;4890962;29;19951;-79
2023/05/20 06:09:07;;;;;;;;;;;;;;;12.92;55.06;100202.47;4893877;29;20304;-81
2023/05/20 06:11:35;;;;;;;;;;;;;;;13.21;54.67;100208.06;4894784;29;19934;-81
2023/05/20 06:14:02;;;;;;;;;;;;;;;13.36;54.29;100197.63;4889010;29;19927;-80
2023/05/20 06:16:28;;;;;;;;;;;;;;;13.41;53.85;100205.09;4878332;29;20411;-79
2023/05/20 06:18:58;;;;;;;;;;;;;;;13.43;53.99;100205.69;4891541;29;19928;-79
2023/05/20 06:21:30;;;;;;;;;;;;;;;13.40;53.55;100201.53;4910322;29;20054;-80
2023/05/20 06:23:57;;;;;;;;;;;;;;;13.24;53.80;100210.31;4894784;29;19927;-80
2023/05/20 06:26:25;;;;;;;;;;;;;;;13.18;54.10;100211.25;4894634;29;19934;-82
2023/05/20 06:28:52;;;;;;;;;;;;;;;13.53;54.28;100205.09;4876378;29;19927;-81
2023/05/20 06:31:19;;;;;;;;;;;;;;;13.92;53.41;100208.97;4890398;29;20007;-80
2023/05/20 06:33:46;;;;;;;;;;;;;;;14.19;53.01;100209.31;4884999;29;19939;-81
2023/05/20 06:36:14;;;;;;;;;;;;;;;14.17;51.32;100202.47;4896962;29;19934;-80
2023/05/20 06:38:41;;;;;;;;;;;;;;;14.09;51.87;100201.75;4892539;29;19927;-81
2023/05/20 06:41:12;;;;;;;;;;;;;;;14.27;50.86;100203.50;4879182;29;19931;-81
2023/05/20 06:43:42;;;;;;;;;;;;;;;14.35;51.11;100202.31;4889347;29;20305;-80
2023/05/20 06:46:48;;;;;;;;;;;;;;;14.69;50.60;100195.16;4857602;29;19927;-81
2023/05/20 06:49:18;;;;;;;;;;;;;;;14.61;49.09;100192.81;4860716;29;19932;-81
2023/05/20 06:51:45;;;;;;;;;;;;;;;14.23;49.92;100196.91;4875645;29;19934;-81
2023/05/20 06:54:12;;;;;;;;;;;;;;;14.23;49.69;100202.34;4877271;29;19928;-81
2023/05/20 06:56:40;;;;;;;;;;;;;;;14.07;49.49;100200.34;4875698;29;19931;-81
2023/05/20 06:59:07;;;;;;;;;;;;;;;13.97;49.39;100197.41;4861952;29;19932;-81
2023/05/20 07:01:35;;;;;;;;;;;;;;;14.27;48.70;100197.25;4894499;29;20416;-79
2023/05/20 07:04:03;;;;;;;;;;;;;;;14.05;48.87;100197.06;4879301;29;19935;-80
2023/05/20 07:06:32;;;;;;;;;;;;;;;13.91;48.76;100193.78;4894833;29;19927;-82
2023/05/20 07:09:02;;;;;;;;;;;;;;;13.95;49.31;100200.38;4895150;29;19927;-81
2023/05/20 07:11:29;;;;;;;;;;;;;;;14.56;48.41;100190.00;4914532;29;19931;-81
2023/05/20 07:13:56;;;;;;;;;;;;;;;15.01;47.22;100185.66;4906894;29;19935;-81
2023/05/20 07:16:26;;;;;;;;;;;;;;;15.32;46.47;100192.47;4899289;29;19931;-79
2023/05/20 07:18:54;;;;;;;;;;;;;;;15.54;46.54;100190.63;4878239;29;19933;-79
2023/05/20 07:21:21;;;;;;;;;;;;;;;15.82;45.72;100181.56;4880723;29;20386;-80
2023/05/20 07:24:20;;;;;;;;;;;;;;;16.19;45.43;100191.03;4882257;29;19933;-81
2023/05/20 07:26:49;;;;;;;;;;;;;;;15.70;44.82;100185.44;4895342;29;19934;-80
2023/05/20 07:29:16;;;;;;;;;;;;;;;15.64;45.31;100189.94;4894662;29;20022;-81
2023/05/20 07:31:43;;;;;;;;;;;;;;;15.89;45.14;100186.81;4878947;29;20464;-79
2023/05/20 07:34:12;;;;;;;;;;;;;;;16.24;45.33;100185.66;4878830;29;20330;-81
2023/05/20 07:36:40;;;;;;;;;;;;;;;16.31;45.02;100188.19;4878676;29;20027;-81
2023/05/20 07:39:07;;;;;;;;;;;;;;;16.10;45.43;100187.09;4894168;29;20486;-81
2023/05/20 07:41:40;;;;;;;;;;;;;;;15.64;44.86;100173.63;4894230;29;19931;-80
2023/05/20 07:44:10;;;;;;;;;;;;;;;15.35;45.08;100172.91;4894087;29;19955;-81
2023/05/20 07:46:43;;;;;;;;;;;;;;;15.42;44.36;100175.44;4897349;29;19931;-80
2023/05/20 07:49:10;;;;;;;;;;;;;;;15.74;44.49;100178.44;4898279;29;19935;-81
2023/05/20 07:51:38;;;;;;;;;;;;;;;16.13;43.72;100175.69;4894231;29;19928;-81
2023/05/20 07:54:05;;;;;;;;;;;;;;;16.66;42.72;100180.44;4894175;29;20394;-80
2023/05/20 07:56:32;;;;;;;;;;;;;;;16.94;42.17;100180.44;4863395;29;19927;-81
2023/05/20 07:58:59;;;;;;;;;;;;;;;16.78;41.16;100160.41;4894277;29;20394;-80
2023/05/20 08:01:31;;;;;;;;;;;;;;;16.40;42.08;100159.41;4895319;29;19927;-81
2023/05/20 08:03:58;;;;;;;;;;;;;;;16.19;41.73;100175.50;4895393;29;19928;-79
2023/05/20 08:06:25;;;;;;;;;;;;;;;16.17;42.27;100174.94;4882465;29;19927;-81
2023/05/20 08:08:56;;;;;;;;;;;;;;;16.52;42.06;100167.44;4896792;29;20452;-81
2023/05/20 08:11:31;;;;;;;;;;;;;;;16.88;40.95;100165.94;4897179;29;19999;-81
2023/05/20 08:14:00;;;;;;;;;;;;;;;17.42;40.16;100178.69;4882267;29;20406;-81
2023/05/20 08:16:32;;;;;;;;;;;;;;;17.70;39.18;100172.09;4881675;29;20485;-81
2023/05/20 08:18:59;;;;;;;;;;;;;;;17.37;38.69;100176.75;4896832;29;19934;-81
2023/05/20 08:21:26;;;;;;;;;;;;;;;17.43;38.84;100177.63;4897435;29;20050;-81
2023/05/20 08:23:53;;;;;;;;;;;;;;;17.61;38.89;100171.72;4896805;29;19927;-81
2023/05/20 08:26:20;;;;;;;;;;;;;;;17.75;37.51;100175.66;4897862;29;19934;-78
2023/05/20 08:28:51;;;;;;;;;;;;;;;18.12;36.51;100158.41;4878399;29;19934;-81
2023/05/20 08:31:21;;;;;;;;;;;;;;;17.58;37.12;100164.06;4888614;29;19931;-80
2023/05/20 08:33:49;;;;;;;;;;;;;;;17.25;36.62;100167.94;4859471;29;20022;-80
2023/05/20 08:36:19;;;;;;;;;;;;;;;17.42;37.38;100170.50;4879822;29;20399;-80
2023/05/20 08:38:47;;;;;;;;;;;;;;;17.39;36.67;100176.47;4894666;29;19977;-80
2023/05/20 08:41:14;;;;;;;;;;;;;;;17.19;37.08;100175.25;4893785;29;19975;-80
2023/05/20 08:43:43;;;;;;;;;;;;;;;17.19;36.60;100182.59;4874334;29;19928;-79
2023/05/20 08:46:10;;;;;;;;;;;;;;;16.53;37.02;100169.91;4890500;29;20283;-81
2023/05/20 08:48:38;;;;;;;;;;;;;;;16.80;37.45;100177.31;4874967;29;20475;-79
2023/05/20 08:51:05;;;;;;;;;;;;;;;17.24;37.07;100179.91;4869503;29;19931;-80
2023/05/20 08:53:32;;;;;;;;;;;;;;;17.65;36.78;100180.25;4891989;29;19934;-80
2023/05/20 08:56:01;;;;;;;;;;;;;;;17.82;36.28;100171.91;4893984;29;19927;-80
2023/05/20 08:58:29;;;;;;;;;;;;;;;17.99;35.68;100164.34;4886901;29;19927;-80
2023/05/20 09:00:57;;;;;;;;;;;;;;;17.71;36.10;100162.78;4883321;29;19934;-79
2023/05/20 09:03:24;;;;;;;;;;;;;;;17.92;36.01;100171.94;4876017;29;19927;-79
2023/05/20 09:05:51;;;;;;;;;;;;;;;18.08;35.79;100170.97;4547413;29;10000559;-81
2023/05/20 09:08:19;;;;;;;;;;;;;;;18.78;34.88;100173.41;4890552;29;19931;-79
2023/05/20 09:10:45;;;;;;;;;;;;;;;18.96;34.65;100161.94;4885619;29;20034;-80
2023/05/20 09:13:12;;;;;;;;;;;;;;;18.61;34.15;100173.63;4876863;29;19950;-80
2023/05/20 09:15:40;;;;;;;;;;;;;;;17.46;35.34;100171.63;4884639;29;19928;-80
2023/05/20 09:18:07;;;;;;;;;;;;;;;16.70;36.98;100180.72;4876739;29;19931;-80
2023/05/20 09:20:39;;;;;;;;;;;;;;;16.31;37.52;100167.22;4898330;29;19989;-80
2023/05/20 09:23:08;;;;;;;;;;;;;;;16.27;38.06;100192.50;4875107;29;19935;-80
2023/05/20 09:25:36;;;;;;;;;;;;;;;16.28;37.87;100181.34;4881966;29;21418;-79
2023/05/20 09:28:06;;;;;;;;;;;;;;;15.98;37.89;100179.88;4870353;29;19982;-81
2023/05/20 09:30:33;;;;;;;;;;;;;;;15.76;38.03;100196.16;4881309;29;19967;-79
2023/05/20 09:33:03;;;;;;;;;;;;;;;15.62;39.12;100186.66;4884118;29;19927;-78
2023/05/20 09:35:33;;;;;;;;;;;;;;;15.68;39.21;100184.84;4894054;29;19927;-80
2023/05/20 09:38:00;;;;;;;;;;;;;;;15.58;39.37;100191.78;4901497;29;19931;-79
2023/05/20 09:40:28;;;;;;;;;;;;;;;15.68;39.36;100190.28;4867111;29;19970;-81
2023/05/20 09:43:07;;;;;;;;;;;;;;;15.80;39.38;100196.50;4878432;29;19984;-79
2023/05/20 09:45:34;;;;;;;;;;;;;;;15.80;39.31;100193.78;4878197;29;19927;-79
2023/05/20 09:48:02;;;;;;;;;;;;;;;15.79;39.06;100187.50;4877154;29;19931;-79
2023/05/20 09:50:30;;;;;;;;;;;;;;;15.89;39.12;100186.81;4886738;29;20033;-79
2023/05/20 09:52:59;;;;;;;;;;;;;;;16.01;38.92;100192.97;4882834;29;19928;-79
2023/05/20 09:55:26;;;;;;;;;;;;;;;16.05;38.99;100196.00;4883152;29;19928;-79
2023/05/20 09:57:54;;;;;;;;;;;;;;;16.33;38.40;100194.19;4885703;29;20279;-79
2023/05/20 10:00:22;;;;;;;;;;;;;;;16.20;38.42;100176.31;4895468;29;19927;-79
2023/05/20 10:02:50;;;;;;;;;;;;;;;16.29;39.00;100190.34;4896355;29;20260;-80
2023/05/20 10:05:20;;;;;;;;;;;;;;;16.49;38.76;100197.94;4896971;29;19928;-79
2023/05/20 10:08:06;;;;;;;;;;;;;;;16.65;38.76;100197.84;4896506;29;19950;-79
2023/05/20 10:10:36;;;;;;;;;;;;;;;16.75;38.77;100199.88;4896461;29;19935;-79
2023/05/20 10:13:22;;;;;;;;;;;;;;;16.94;38.12;100196.81;4903428;29;20026;-82
2023/05/20 10:15:55;;;;;;;;;;;;;;;16.83;37.83;100201.34;4900768;29;20030;-80
2023/05/20 10:18:39;;;;;;;;;;;;;;;16.90;38.52;100194.59;4888341;29;20030;-80
2023/05/20 10:21:16;;;;;;;;;;;;;;;17.46;38.06;100202.47;4877312;29;19963;-80
2023/05/20 10:23:43;;;;;;;;;;;;;;;17.84;36.67;100197.84;4886603;29;19927;-79
2023/05/20 10:26:10;;;;;;;;;;;;;;;17.74;37.31;100195.03;4885234;29;19928;-80
2023/05/20 10:28:37;;;;;;;;;;;;;;;18.31;37.33;100190.72;4887744;29;19927;-80
2023/05/20 10:31:22;;;;;;;;;;;;;;;18.36;36.79;100188.03;4880450;29;19928;-80
2023/05/20 10:33:51;;;;;;;;;;;;;;;18.03;37.45;100181.84;4881834;29;19932;-79
2023/05/20 10:36:22;;;;;;;;;;;;;;;17.79;37.72;100199.69;4860807;29;20036;-78
2023/05/20 10:39:08;;;;;;;;;;;;;;;17.53;38.14;100200.34;4875561;29;20402;-79
2023/05/20 10:41:36;;;;;;;;;;;;;;;17.16;38.44;100199.47;4876229;29;19966;-78
2023/05/20 10:44:03;;;;;;;;;;;;;;;16.78;39.32;100204.00;4861525;29;19975;-80
2023/05/20 10:46:31;;;;;;;;;;;;;;;16.85;39.23;100205.44;4896843;29;19928;-79
2023/05/20 10:49:21;;;;;;;;;;;;;;;16.84;39.13;100203.00;4897105;29;20456;-79
2023/05/20 10:51:52;;;;;;;;;;;;;;;16.74;39.56;100195.50;4895338;29;19977;-79
2023/05/20 10:54:20;;;;;;;;;;;;;;;16.64;39.56;100198.13;4884632;29;19934;-80
2023/05/20 10:56:51;;;;;;;;;;;;;;;16.46;39.85;100196.56;4910709;29;20444;-81
2023/05/20 10:59:20;;;;;;;;;;;;;;;16.27;40.22;100195.22;4896588;29;20022;-80
2023/05/20 11:01:47;;;;;;;;;;;;;;;16.11;40.51;100195.03;4895819;29;19927;-80
2023/05/20 11:04:14;;;;;;;;;;;;;;;15.91;40.55;100198.28;4894637;29;20410;-79
2023/05/20 11:06:50;;;;;;;;;;;;;;;15.75;40.45;100199.97;4895485;29;19938;-80
2023/05/20 11:09:17;;;;;;;;;;;;;;;15.72;40.55;100208.63;4894073;29;19927;-81
2023/05/20 11:11:43;;;;;;;;;;;;;;;15.77;40.41;100210.59;4877862;29;20457;-81
2023/05/20 11:14:13;;;;;;;;;;;;;;;15.81;40.35;100206.31;4889612;29;19931;-81
2023/05/20 11:16:40;;;;;;;;;;;;;;;15.78;40.17;100201.38;4888106;29;20428;-79
2023/05/20 11:19:08;;;;;;;;;;;;;;;15.71;40.47;100204.25;4890345;29;19927;-79
2023/05/20 11:21:41;;;;;;;;;;;;;;;15.64;40.79;100208.19;4893289;29;19975;-79
2023/05/20 11:24:08;;;;;;;;;;;;;;;15.41;41.00;100207.28;4903865;29;19934;-79
2023/05/20 11:26:35;;;;;;;;;;;;;;;15.35;41.17;100205.56;4895108;29;20058;-80
2023/05/20 11:29:02;;;;;;;;;;;;;;;15.40;41.45;100200.19;4897242;29;20029;-78
2023/05/20 11:31:30;;;;;;;;;;;;;;;15.41;40.89;100204.56;4895420;29;20063;-79
2023/05/20 11:34:01;;;;;;;;;;;;;;;15.56;41.27;100210.25;4895648;29;20297;-79
2023/05/20 11:36:29;;;;;;;;;;;;;;;15.62;40.48;100213.84;4894582;29;20029;-79
2023/05/20 11:38:56;;;;;;;;;;;;;;;15.67;40.05;100215.84;4894459;29;20346;-79
2023/05/20 11:41:24;;;;;;;;;;;;;;;15.58;39.20;100215.44;4891000;29;20014;-80
2023/05/20 11:43:55;;;;;;;;;;;;;;;15.63;39.28;100209.25;4893471;29;20033;-79
2023/05/20 11:46:23;;;;;;;;;;;;;;;15.55;39.29;100208.59;4880794;29;19928;-78
2023/05/20 11:48:53;;;;;;;;;;;;;;;15.59;39.29;100203.47;4863755;29;19927;-79
2023/05/20 11:51:26;;;;;;;;;;;;;;;15.66;38.99;100209.56;4880541;29;19934;-79
2023/05/20 11:54:03;;;;;;;;;;;;;;;15.64;39.25;100205.47;4879754;29;20030;-79
2023/05/20 11:56:33;;;;;;;;;;;;;;;15.74;39.34;100206.47;4893253;29;20441;-80
2023/05/20 11:59:00;;;;;;;;;;;;;;;15.68;39.16;100209.34;4901353;29;20450;-79
2023/05/20 12:01:39;;;;;;;;;;;;;;;15.52;39.84;100209.09;4891111;29;19927;-79
2023/05/20 12:04:07;;;;;;;;;;;;;;;15.55;39.97;100210.50;4880040;29;19927;-79
2023/05/20 12:06:35;;;;;;;;;;;;;;;15.66;39.83;100209.56;4886131;29;20390;-79
2023/05/20 12:09:07;;;;;;;;;;;;;;;15.74;39.81;100211.91;4880057;29;20000;-79
2023/05/20 12:11:34;;;;;;;;;;;;;;;15.79;39.19;100211.16;4890321;29;19927;-79
2023/05/20 12:14:02;;;;;;;;;;;;;;;15.63;39.61;100201.91;4880455;29;20492;-79
2023/05/20 12:16:30;;;;;;;;;;;;;;;15.72;39.43;100197.75;4882473;29;20341;-79
2023/05/20 12:18:57;;;;;;;;;;;;;;;15.78;39.53;100198.63;4887439;29;19927;-79
2023/05/20 12:21:24;;;;;;;;;;;;;;;15.84;39.63;100200.34;4885810;29;20347;-80
2023/05/20 12:23:56;;;;;;;;;;;;;;;15.83;39.74;100209.59;4887791;29;20260;-80
2023/05/20 12:26:24;;;;;;;;;;;;;;;15.80;39.88;100208.19;4888541;29;19931;-79
2023/05/20 12:28:51;;;;;;;;;;;;;;;15.87;39.97;100199.03;4878596;29;19927;-79
2023/05/20 12:31:18;;;;;;;;;;;;;;;15.92;40.49;100213.53;4894797;29;19928;-80
2023/05/20 12:33:45;;;;;;;;;;;;;;;15.82;40.43;100207.94;4890068;29;20030;-79
2023/05/20 12:36:12;;;;;;;;;;;;;;;15.99;40.73;100206.00;4880426;29;20034;-78
2023/05/20 12:38:40;;;;;;;;;;;;;;;16.17;40.28;100209.53;4896735;29;19937;-77
2023/05/20 12:41:07;;;;;;;;;;;;;;;16.37;39.93;100212.50;4881058;29;19983;-79
2023/05/20 12:43:34;;;;;;;;;;;;;;;16.65;39.63;100214.19;4883037;29;19935;-80
2023/05/20 12:46:02;;;;;;;;;;;;;;;16.77;39.21;100200.44;4893676;29;20060;-78
2023/05/20 12:48:30;;;;;;;;;;;;;;;17.11;38.82;100208.44;4896483;29;19963;-79